Time;durP1;ratioP1;P1;durP2;ratioP2;P2;SDS_P1;SDS_P2;PMS_P1;PMS_P2;Temp;Humidity;BMP_temperature;BMP_pressure;BME280_temperature;BME280_humidity;BME280_pressure;Samples;Min_cycle;Max_cycle;Signal;HPM_P1;HPM_P2
2024/04/11 00:04:59;;;;;;;6.22;2.33;;;12.20;57.30;;;;;;10959677;26;20359;-60
2024/04/11 00:10:07;;;;;;;5.18;1.73;;;12.20;57.60;;;;;;10958784;26;20351;-60
2024/04/11 00:15:13;;;;;;;3.78;1.92;;;12.20;57.40;;;;;;10959101;26;20356;-60
2024/04/11 00:20:19;;;;;;;4.88;1.80;;;12.20;57.40;;;;;;10957534;26;20239;-59
2024/04/11 00:25:27;;;;;;;5.82;2.53;;;12.20;57.50;;;;;;10960338;26;20251;-61
2024/04/11 00:30:33;;;;;;;7.97;2.15;;;12.20;57.70;;;;;;11018756;21;20261;-62
2024/04/11 00:35:38;;;;;;;5.13;2.00;;;12.20;57.30;;;;;;11000977;26;20468;-62
2024/04/11 00:40:55;;;;;;;4.28;2.00;;;12.20;57.60;;;;;;10951050;26;20239;-63
2024/04/11 00:46:01;;;;;;;4.05;1.80;;;12.20;58.40;;;;;;10944042;26;21966;-62
2024/04/11 00:51:07;;;;;;;5.15;2.22;;;12.20;57.80;;;;;;10945712;26;20247;-63
2024/04/11 00:56:17;;;;;;;3.95;1.70;;;12.10;57.70;;;;;;10945661;26;20861;-62
2024/04/11 01:01:22;;;;;;;4.47;1.75;;;12.10;57.90;;;;;;10946361;26;20239;-62
2024/04/11 01:06:27;;;;;;;6.65;1.80;;;12.10;57.70;;;;;;10944857;26;20238;-62
2024/04/11 01:11:35;;;;;;;3.53;1.75;;;12.10;58.00;;;;;;10945300;26;20240;-62
2024/04/11 01:16:41;;;;;;;4.15;1.83;;;12.10;58.10;;;;;;10943193;26;20247;-62
2024/04/11 01:21:46;;;;;;;4.18;2.20;;;12.10;58.00;;;;;;10944062;26;21037;-62
2024/04/11 01:26:56;;;;;;;4.80;1.85;;;12.10;58.00;;;;;;10944498;26;20375;-62
2024/04/11 01:32:03;;;;;;;3.55;1.73;;;12.10;58.10;;;;;;10944769;26;20239;-63
2024/04/11 01:37:08;;;;;;;3.72;1.80;;;12.00;58.00;;;;;;10944489;26;20705;-62
2024/04/11 01:42:18;;;;;;;5.80;1.70;;;12.10;58.10;;;;;;10945525;26;20399;-62
2024/04/11 01:47:23;;;;;;;7.65;1.90;;;12.10;57.90;;;;;;10943512;26;20305;-62
2024/04/11 01:52:28;;;;;;;6.05;2.13;;;12.10;57.90;;;;;;10946831;26;20385;-63
2024/04/11 01:57:37;;;;;;;5.30;1.65;;;12.10;57.90;;;;;;10941660;26;20240;-62
2024/04/11 02:02:44;;;;;;;4.75;1.80;;;12.10;57.90;;;;;;10941640;26;20325;-63
2024/04/11 02:07:50;;;;;;;3.80;1.40;;;12.10;57.80;;;;;;10941168;26;20243;-62
2024/04/11 02:12:59;;;;;;;5.13;1.88;;;12.10;57.80;;;;;;10943322;26;20967;-62
2024/04/11 02:18:07;;;;;;;4.03;1.55;;;12.10;58.30;;;;;;10943153;26;22058;-62
2024/04/11 02:23:12;;;;;;;7.80;1.70;;;12.10;58.00;;;;;;10940866;26;20339;-63
2024/04/11 02:28:21;;;;;;;4.68;1.40;;;12.10;58.00;;;;;;10940720;26;20239;-62
2024/04/11 02:33:29;;;;;;;6.57;1.50;;;12.10;57.90;;;;;;10940720;26;20329;-62
2024/04/11 02:38:35;;;;;;;3.58;1.45;;;12.10;58.30;;;;;;10941206;26;20247;-62
2024/04/11 02:43:43;;;;;;;5.57;1.73;;;12.10;58.50;;;;;;10941293;26;20240;-62
2024/04/11 02:48:50;;;;;;;4.05;1.48;;;12.10;57.80;;;;;;10942870;26;20376;-63
2024/04/11 02:53:57;;;;;;;2.67;1.20;;;12.10;58.90;;;;;;10943365;26;20235;-63
2024/04/11 02:59:05;;;;;;;4.65;1.42;;;12.10;58.00;;;;;;10941219;26;20593;-61
2024/04/11 03:04:10;;;;;;;4.15;1.17;;;12.10;57.70;;;;;;10944054;26;20636;-61
2024/04/11 03:09:16;;;;;;;5.30;1.55;;;12.20;59.10;;;;;;10941209;26;20251;-62
2024/04/11 03:14:26;;;;;;;7.38;1.63;;;12.30;58.60;;;;;;10942248;26;20296;-62
2024/04/11 03:19:32;;;;;;;3.70;1.25;;;12.30;57.70;;;;;;10941646;26;20242;-63
2024/04/11 03:24:38;;;;;;;5.00;1.23;;;12.30;57.80;;;;;;10942520;26;20247;-61
2024/04/11 03:29:46;;;;;;;5.78;1.42;;;12.30;57.50;;;;;;10943501;26;22589;-62
2024/04/11 03:34:51;;;;;;;4.20;1.20;;;12.40;57.70;;;;;;10941997;26;20331;-62
2024/04/11 03:39:57;;;;;;;4.80;1.33;;;12.50;57.50;;;;;;10942015;26;21121;-62
2024/04/11 03:45:11;;;;;;;4.70;1.50;;;12.50;57.50;;;;;;10939833;26;20231;-62
2024/04/11 03:50:17;;;;;;;5.72;1.65;;;12.50;59.00;;;;;;10930516;26;20243;-63
2024/04/11 03:55:22;;;;;;;4.75;1.42;;;12.60;58.40;;;;;;10940137;26;20235;-62
2024/04/11 04:00:30;;;;;;;3.17;1.20;;;12.60;58.60;;;;;;10938893;26;20234;-63
2024/04/11 04:05:36;;;;;;;3.67;1.27;;;12.60;58.20;;;;;;10939081;26;20246;-62
2024/04/11 04:10:41;;;;;;;3.88;1.17;;;12.60;57.80;;;;;;10939135;26;20290;-62
2024/04/11 04:15:49;;;;;;;3.05;1.30;;;12.60;57.90;;;;;;10938490;26;20234;-62
2024/04/11 04:20:59;;;;;;;4.55;1.50;;;12.70;58.50;;;;;;10940112;26;20879;-62
2024/04/11 04:26:05;;;;;;;3.40;1.17;;;12.80;58.60;;;;;;10939167;26;20235;-62
2024/04/11 04:31:18;;;;;;;3.30;1.17;;;12.80;58.70;;;;;;10948790;26;20242;-62
2024/04/11 04:36:26;;;;;;;3.20;1.35;;;12.80;58.70;;;;;;10947480;26;20960;-62
2024/04/11 04:41:32;;;;;;;6.13;1.55;;;12.90;59.30;;;;;;10946600;26;20321;-62
2024/04/11 04:46:41;;;;;;;3.28;1.30;;;12.90;58.80;;;;;;10944406;26;20243;-62
2024/04/11 04:51:47;;;;;;;2.83;1.30;;;12.90;58.90;;;;;;10944870;26;21739;-62
2024/04/11 04:56:53;;;;;;;5.55;1.25;;;13.00;58.60;;;;;;10947908;26;20321;-63
2024/04/11 05:02:03;;;;;;;5.38;1.60;;;13.00;58.10;;;;;;10948608;26;20372;-63
2024/04/11 05:07:12;;;;;;;5.40;1.40;;;13.10;58.90;;;;;;10944887;26;20247;-60
2024/04/11 05:12:19;;;;;;;7.05;1.30;;;13.10;60.80;;;;;;10946330;26;20837;-62
2024/04/11 05:17:27;;;;;;;3.05;1.25;;;13.10;58.70;;;;;;10943571;26;20242;-62
2024/04/11 05:22:36;;;;;;;3.58;1.38;;;13.20;58.60;;;;;;10945553;26;20232;-61
2024/04/11 05:27:42;;;;;;;4.60;1.45;;;13.20;60.20;;;;;;10944218;26;20239;-64
2024/04/11 05:32:50;;;;;;;3.20;1.20;;;13.30;60.40;;;;;;10946397;26;20239;-64
2024/04/11 05:37:56;;;;;;;5.30;1.42;;;13.30;59.10;;;;;;10943600;26;20405;-64
2024/04/11 05:43:01;;;;;;;5.90;1.40;;;13.40;58.70;;;;;;10944874;26;20815;-65
2024/04/11 05:48:09;;;;;;;4.40;1.40;;;13.40;59.60;;;;;;10945256;26;21743;-65
2024/04/11 05:53:16;;;;;;;3.78;1.50;;;13.50;59.30;;;;;;10944249;26;20230;-64
2024/04/11 05:58:22;;;;;;;4.10;1.10;;;13.50;59.30;;;;;;10942920;26;21619;-61
2024/04/11 06:03:30;;;;;;;4.68;1.55;;;13.50;58.60;;;;;;10944753;26;20819;-62
2024/04/11 06:08:36;;;;;;;4.88;1.38;;;13.60;59.60;;;;;;10944099;26;20239;-62
2024/04/11 06:13:42;;;;;;;5.57;1.60;;;13.60;58.60;;;;;;10942172;26;20234;-63
2024/04/11 06:18:54;;;;;;;5.13;1.30;;;13.60;59.30;;;;;;10944396;26;20310;-61
2024/04/11 06:24:01;;;;;;;4.72;1.23;;;13.60;59.30;;;;;;10941425;26;20324;-61
2024/04/11 06:29:11;;;;;;;4.72;1.30;;;13.60;59.20;;;;;;10874519;26;20383;-61
2024/04/11 06:34:20;;;;;;;7.57;1.48;;;13.60;59.60;;;;;;10954847;21;20272;-60
2024/04/11 06:39:26;;;;;;;4.97;1.23;;;13.70;59.20;;;;;;10892403;26;20227;-59
2024/04/11 06:44:32;;;;;;;6.25;1.50;;;13.60;59.00;;;;;;10891617;26;21649;-62
2024/04/11 06:49:41;;;;;;;4.80;1.35;;;13.60;58.80;;;;;;10865499;26;20306;-60
2024/04/11 06:54:47;;;;;;;5.28;1.50;;;13.70;58.80;;;;;;10865316;26;20243;-59
2024/04/11 06:59:52;;;;;;;5.97;1.58;;;13.60;58.70;;;;;;10861097;26;20240;-62
2024/04/11 07:05:01;;;;;;;3.92;1.27;;;13.70;59.10;;;;;;10857763;26;20232;-63
2024/04/11 07:10:15;;;;;;;6.30;1.60;;;13.70;59.70;;;;;;10885672;26;20227;-62
2024/04/11 07:15:23;;;;;;;3.90;1.95;;;13.70;58.90;;;;;;10882272;26;20235;-61
2024/04/11 07:20:35;;;;;;;4.93;1.30;;;13.80;58.80;;;;;;10856605;26;20334;-64
2024/04/11 07:25:41;;;;;;;3.95;1.30;;;13.80;59.10;;;;;;10883969;26;20231;-62
2024/04/11 07:30:47;;;;;;;5.32;1.77;;;13.80;59.70;;;;;;10878233;26;20244;-64
2024/04/11 07:35:55;;;;;;;6.10;1.58;;;13.80;59.20;;;;;;10871427;26;20240;-61
2024/04/11 07:41:16;;;;;;;6.97;1.70;;;13.90;59.60;;;;;;10873623;26;21589;-63
2024/04/11 07:46:22;;;;;;;5.40;1.45;;;14.00;59.60;;;;;;10870854;26;20234;-63
2024/04/11 07:51:30;;;;;;;4.80;1.42;;;14.10;59.50;;;;;;10874763;26;20333;-60
2024/04/11 07:56:36;;;;;;;3.47;1.23;;;14.10;59.40;;;;;;10850897;26;21818;-61
2024/04/11 08:01:41;;;;;;;5.13;1.27;;;14.20;60.20;;;;;;10856236;26;20240;-63
2024/04/11 08:06:49;;;;;;;7.03;1.45;;;14.20;60.00;;;;;;10863697;26;20235;-63
2024/04/11 08:11:55;;;;;;;6.28;1.50;;;14.20;59.80;;;;;;10871702;26;20236;-63
2024/04/11 08:17:00;;;;;;;3.78;1.40;;;14.30;60.00;;;;;;10869630;26;20361;-62
2024/04/11 08:22:08;;;;;;;7.90;1.80;;;14.40;59.60;;;;;;10875525;26;20235;-62
2024/04/11 08:27:14;;;;;;;9.00;1.75;;;14.50;59.60;;;;;;10875011;26;20406;-61
2024/04/11 08:32:21;;;;;;;6.63;1.55;;;14.60;59.70;;;;;;10868552;26;20478;-61
2024/04/11 08:37:31;;;;;;;6.03;1.42;;;14.70;60.00;;;;;;10873033;26;20284;-61
2024/04/11 08:42:36;;;;;;;6.45;1.80;;;14.80;60.00;;;;;;10878046;26;20287;-61
2024/04/11 08:47:42;;;;;;;7.70;1.63;;;14.80;60.50;;;;;;10923089;26;20351;-64
2024/04/11 08:52:54;;;;;;;6.53;1.33;;;14.90;60.20;;;;;;10930918;26;20233;-64
2024/04/11 08:57:59;;;;;;;5.78;1.20;;;15.00;60.90;;;;;;10902052;26;20350;-64
2024/04/11 09:03:05;;;;;;;4.15;1.20;;;14.90;60.10;;;;;;10876355;26;20329;-63
2024/04/11 09:08:18;;;;;;;5.47;1.33;;;15.00;61.00;;;;;;10861997;26;20840;-64
2024/04/11 09:13:25;;;;;;;5.88;1.40;;;15.00;60.60;;;;;;10854523;26;20236;-62
2024/04/11 09:18:30;;;;;;;5.07;1.60;;;15.00;60.90;;;;;;10851964;26;20610;-62
2024/04/11 09:23:47;;;;;;;7.03;1.42;;;15.10;60.80;;;;;;10848367;26;20873;-62
2024/04/11 09:28:54;;;;;;;8.23;1.80;;;15.20;61.10;;;;;;10851068;26;20258;-63
2024/04/11 09:34:00;;;;;;;6.30;1.52;;;15.30;61.40;;;;;;10850627;26;20235;-62
2024/04/11 09:39:13;;;;;;;6.90;1.85;;;15.40;61.40;;;;;;10863282;26;21143;-63
2024/04/11 09:44:31;;;;;;;5.82;1.77;;;15.50;62.60;;;;;;10863704;26;23454;-63
2024/04/11 09:49:37;;;;;;;5.72;1.90;;;15.40;61.90;;;;;;10860191;26;21938;-64
2024/04/11 09:54:46;;;;;;;5.30;1.73;;;15.40;62.20;;;;;;10866227;26;20824;-63
2024/04/11 09:59:52;;;;;;;6.90;1.60;;;15.50;62.40;;;;;;10867855;26;20239;-64
2024/04/11 10:04:59;;;;;;;4.63;1.50;;;15.60;62.30;;;;;;10864685;26;20619;-63
2024/04/11 10:10:07;;;;;;;5.35;1.50;;;15.60;63.10;;;;;;10865481;26;20232;-63
2024/04/11 10:15:18;;;;;;;5.03;1.58;;;15.80;63.10;;;;;;10862988;26;21409;-62
2024/04/11 10:20:24;;;;;;;5.22;1.70;;;15.80;62.80;;;;;;10863914;26;20357;-61
2024/04/11 10:25:33;;;;;;;5.03;1.65;;;15.90;63.10;;;;;;10868780;26;20240;-64
2024/04/11 10:30:40;;;;;;;5.65;1.60;;;15.90;62.80;;;;;;10866642;26;20239;-62
2024/04/11 10:35:46;;;;;;;6.45;2.00;;;15.90;63.00;;;;;;10870711;26;20243;-61
2024/04/11 10:40:56;;;;;;;6.18;1.70;;;15.80;63.40;;;;;;10868342;26;20231;-62
2024/04/11 10:46:05;;;;;;;5.63;1.70;;;15.80;63.50;;;;;;10867212;26;20335;-63
2024/04/11 10:51:11;;;;;;;4.18;1.75;;;15.80;64.20;;;;;;10860247;26;20344;-63
2024/04/11 10:56:24;;;;;;;6.63;1.80;;;15.80;65.10;;;;;;10862262;26;20656;-63
2024/04/11 11:01:30;;;;;;;4.72;1.70;;;15.70;65.00;;;;;;10879693;26;20235;-63
2024/04/11 11:06:47;;;;;;;7.10;1.98;;;15.60;64.70;;;;;;10852045;26;21293;-71
2024/04/11 11:11:55;;;;;;;4.78;1.95;;;15.70;65.90;;;;;;10880892;26;20365;-77
2024/04/11 11:17:02;;;;;;;5.50;2.15;;;15.70;65.50;;;;;;10868086;26;20247;-73
2024/04/11 11:22:07;;;;;;;6.47;1.90;;;15.80;65.90;;;;;;10844710;26;20248;-74
2024/04/11 11:27:20;;;;;;;4.82;2.10;;;15.80;65.40;;;;;;10847344;26;20312;-73
2024/04/11 11:32:26;;;;;;;6.72;2.33;;;15.80;65.90;;;;;;10865657;26;21613;-75
2024/04/11 11:37:32;;;;;;;7.35;2.17;;;15.80;66.80;;;;;;10866996;26;22230;-71
2024/04/11 11:42:43;;;;;;;6.72;2.17;;;15.80;66.20;;;;;;10901841;26;20236;-71
2024/04/11 11:47:49;;;;;;;3.63;2.03;;;15.90;66.70;;;;;;10878205;26;20349;-68
2024/04/11 11:52:55;;;;;;;4.80;2.00;;;15.90;66.70;;;;;;10872509;26;20240;-73
2024/04/11 11:58:05;;;;;;;8.07;2.05;;;16.00;66.90;;;;;;10882291;26;20243;-71
2024/04/11 12:03:20;;;;;;;4.15;1.88;;;16.00;67.90;;;;;;10911536;26;20236;-70
2024/04/11 12:08:39;;;;;;;6.38;1.90;;;16.10;66.70;;;;;;10906201;26;20334;-70
2024/04/11 12:13:51;;;;;;;7.53;2.10;;;16.30;67.20;;;;;;10943784;26;21074;-69
2024/04/11 12:18:58;;;;;;;5.88;1.83;;;16.30;67.60;;;;;;10948160;26;20849;-69
2024/04/11 12:24:05;;;;;;;6.63;2.00;;;16.30;68.20;;;;;;10917082;26;20340;-71
2024/04/11 12:29:13;;;;;;;7.38;2.08;;;16.30;68.30;;;;;;10899460;26;20231;-70
2024/04/11 12:34:19;;;;;;;5.07;1.88;;;16.30;68.60;;;;;;10932045;26;20247;-70
2024/04/11 12:39:32;;;;;;;6.35;1.83;;;16.30;69.10;;;;;;10850607;26;20294;-69
2024/04/11 12:44:45;;;;;;;7.13;2.00;;;16.30;69.50;;;;;;10844974;26;20244;-66
2024/04/11 12:49:50;;;;;;;6.15;2.17;;;16.30;70.50;;;;;;10846874;26;20244;-66
2024/04/11 12:54:58;;;;;;;5.22;1.90;;;16.40;70.70;;;;;;10851267;26;20354;-67
2024/04/11 13:00:34;;;;;;;6.70;2.15;;;16.40;70.00;;;;;;10851229;26;20240;-67
2024/04/11 13:05:44;;;;;;;4.72;1.98;;;16.50;70.50;;;;;;10850592;26;21742;-67
2024/04/11 13:10:55;;;;;;;3.55;2.17;;;16.50;70.30;;;;;;10849657;26;20730;-67
2024/04/11 13:16:09;;;;;;;6.88;2.22;;;16.60;70.40;;;;;;10844266;26;20897;-67
2024/04/11 13:21:30;;;;;;;7.25;1.98;;;16.70;71.30;;;;;;10849104;26;20241;-67
2024/04/11 13:26:50;;;;;;;5.40;2.38;;;16.80;70.60;;;;;;10848883;26;20279;-66
2024/04/11 13:31:58;;;;;;;6.97;2.10;;;16.80;71.60;;;;;;10868680;26;20242;-69
2024/04/11 13:37:06;;;;;;;4.38;2.25;;;16.70;71.50;;;;;;10862008;26;20826;-68
2024/04/11 13:42:13;;;;;;;5.22;2.30;;;16.80;72.00;;;;;;10848855;26;20337;-66
2024/04/11 13:47:25;;;;;;;4.38;2.30;;;16.90;71.40;;;;;;10850669;26;20798;-66
2024/04/11 13:52:32;;;;;;;7.30;2.60;;;16.90;72.00;;;;;;10851663;26;20346;-66
2024/04/11 13:57:41;;;;;;;10.32;2.30;;;16.90;71.90;;;;;;10850997;26;20934;-67
2024/04/11 14:02:58;;;;;;;4.75;2.17;;;16.80;72.40;;;;;;10861951;26;20235;-68
2024/04/11 14:08:04;;;;;;;4.65;2.50;;;16.80;72.70;;;;;;10871381;26;21809;-69
2024/04/11 14:13:14;;;;;;;7.35;2.70;;;16.80;72.40;;;;;;10852770;26;20244;-69
2024/04/11 14:18:28;;;;;;;6.35;2.30;;;16.70;72.70;;;;;;10847419;26;20244;-67
2024/04/11 14:23:47;;;;;;;8.68;2.80;;;16.70;72.80;;;;;;10852395;26;20869;-66
2024/04/11 14:28:54;;;;;;;5.43;2.63;;;16.60;73.30;;;;;;10850164;26;20330;-66
2024/04/11 14:39:33;;;;;;;4.40;2.58;;;16.60;74.30;;;;;;10852016;26;20240;-66
2024/04/11 14:44:44;;;;;;;6.15;2.22;;;16.70;73.20;;;;;;10848595;26;20242;-67
2024/04/11 14:49:55;;;;;;;3.97;2.38;;;16.80;73.40;;;;;;10847991;26;20239;-68
2024/04/11 14:55:09;;;;;;;7.82;2.42;;;16.80;73.90;;;;;;10850801;26;20238;-65
2024/04/11 15:05:39;;;;;;;3.22;2.13;;;16.80;73.60;;;;;;10858395;26;20244;-63
2024/04/11 15:10:45;;;;;;;4.55;2.90;;;16.80;73.90;;;;;;10891017;26;20243;-65
2024/04/11 15:15:59;;;;;;;8.10;2.80;;;16.80;73.80;;;;;;10897615;26;20240;-68
2024/04/11 15:21:15;;;;;;;5.43;2.70;;;16.80;73.50;;;;;;10900273;26;20239;-64
2024/04/11 15:26:27;;;;;;;5.95;2.97;;;16.90;74.00;;;;;;10910683;26;20724;-70
2024/04/11 15:31:32;;;;;;;7.25;3.20;;;16.90;74.20;;;;;;10844593;26;20236;-70
2024/04/11 15:36:52;;;;;;;5.60;2.67;;;16.80;74.00;;;;;;10842340;26;21765;-69
2024/04/11 15:42:00;;;;;;;8.20;3.35;;;16.80;74.10;;;;;;10844096;26;20299;-69
2024/04/11 15:47:06;;;;;;;5.05;3.05;;;16.80;73.80;;;;;;10842528;26;20248;-70
2024/04/11 15:52:14;;;;;;;5.93;2.80;;;16.80;73.50;;;;;;10838950;26;20310;-69
2024/04/11 15:57:20;;;;;;;7.05;2.50;;;16.90;74.10;;;;;;10838572;26;20256;-69
2024/04/11 16:02:28;;;;;;;4.97;2.40;;;16.90;74.00;;;;;;10841981;26;22090;-69
2024/04/11 16:07:36;;;;;;;5.55;2.63;;;17.00;74.00;;;;;;10842905;26;20244;-71
2024/04/11 16:12:41;;;;;;;5.65;2.58;;;17.00;73.70;;;;;;10841104;26;20236;-70
2024/04/11 16:17:49;;;;;;;6.53;3.30;;;17.00;74.50;;;;;;10840915;26;20240;-68
2024/04/11 16:22:58;;;;;;;5.65;2.50;;;17.00;73.90;;;;;;10842629;26;20299;-69
2024/04/11 16:28:08;;;;;;;4.00;2.80;;;17.00;74.50;;;;;;10849683;26;20761;-68
2024/04/11 16:33:13;;;;;;;4.57;3.20;;;17.00;74.30;;;;;;10846153;26;20240;-66
2024/04/11 16:38:35;;;;;;;7.30;3.03;;;17.00;74.30;;;;;;10847151;26;20334;-67
2024/04/11 16:43:43;;;;;;;5.20;2.60;;;16.90;75.40;;;;;;10849279;26;20248;-67
2024/04/11 16:48:53;;;;;;;8.73;2.72;;;16.90;75.20;;;;;;10849914;26;22628;-69
2024/04/11 16:54:18;;;;;;;4.82;2.72;;;16.90;75.20;;;;;;10854916;26;20877;-66
2024/04/11 16:59:31;;;;;;;6.22;2.85;;;16.80;74.80;;;;;;10849028;26;20252;-68
2024/04/11 17:04:38;;;;;;;4.95;2.88;;;16.80;75.40;;;;;;10852737;26;20261;-69
2024/04/11 17:09:54;;;;;;;4.45;3.00;;;16.80;74.90;;;;;;10853638;26;20240;-69
2024/04/11 17:15:00;;;;;;;7.15;3.20;;;16.80;75.20;;;;;;10850242;26;20761;-70
2024/04/11 17:25:32;;;;;;;8.90;3.90;;;16.70;75.60;;;;;;10853492;26;20349;-70
2024/04/11 17:31:01;;;;;;;7.13;3.80;;;16.70;75.60;;;;;;10851051;26;20232;-70
2024/04/11 17:41:36;;;;;;;8.23;3.53;;;16.70;74.90;;;;;;10849393;26;20743;-68
2024/04/11 17:47:13;;;;;;;6.10;3.20;;;16.70;75.20;;;;;;10851506;26;20243;-68
2024/04/11 17:52:27;;;;;;;5.55;3.00;;;16.70;75.00;;;;;;10849844;26;20249;-67
2024/04/11 17:57:41;;;;;;;7.60;4.47;;;16.70;75.10;;;;;;10851218;26;20727;-68
2024/04/11 18:02:49;;;;;;;6.07;3.40;;;16.60;75.50;;;;;;10849926;26;20340;-68
2024/04/11 18:08:02;;;;;;;5.45;2.85;;;16.60;75.70;;;;;;10850452;26;22302;-68
2024/04/11 18:13:16;;;;;;;4.55;2.50;;;16.60;76.10;;;;;;10847676;26;20252;-68
2024/04/11 18:18:24;;;;;;;4.82;2.50;;;16.50;76.00;;;;;;10849782;26;20244;-69
2024/04/11 18:23:30;;;;;;;7.32;3.00;;;16.50;75.70;;;;;;10848635;26;20244;-69
2024/04/11 18:28:38;;;;;;;7.53;3.13;;;16.50;76.30;;;;;;10847733;26;20331;-69
2024/04/11 18:33:47;;;;;;;6.45;2.47;;;16.50;76.00;;;;;;10849606;26;23004;-69
2024/04/11 18:38:54;;;;;;;6.40;2.80;;;16.50;75.90;;;;;;10845530;26;20377;-65
2024/04/11 18:44:07;;;;;;;6.55;3.05;;;16.40;75.90;;;;;;10844868;26;20249;-63
2024/04/11 18:49:17;;;;;;;5.68;3.10;;;16.40;75.90;;;;;;10846851;26;20359;-62
2024/04/11 18:54:23;;;;;;;6.18;3.28;;;16.40;76.30;;;;;;10846086;26;20319;-66
2024/04/11 18:59:36;;;;;;;7.45;2.85;;;16.40;75.90;;;;;;10846260;26;20357;-65
2024/04/11 19:04:44;;;;;;;6.95;2.33;;;16.40;76.50;;;;;;10843163;26;21525;-64
2024/04/11 19:09:58;;;;;;;7.88;2.60;;;16.40;76.10;;;;;;10840763;26;20239;-63
2024/04/11 19:15:10;;;;;;;8.32;2.88;;;16.40;76.80;;;;;;10848132;26;22373;-64
2024/04/11 19:20:29;;;;;;;5.47;2.45;;;16.40;76.40;;;;;;10852052;26;20244;-62
2024/04/11 19:25:38;;;;;;;6.60;3.08;;;16.40;76.00;;;;;;10866003;26;20353;-63
2024/04/11 19:30:46;;;;;;;12.60;10.00;;;16.40;76.00;;;;;;10867169;26;20244;-61
2024/04/11 19:35:54;;;;;;;7.10;3.70;;;16.40;76.60;;;;;;10869584;26;20354;-63
2024/04/11 19:41:00;;;;;;;8.90;3.28;;;16.30;76.40;;;;;;10866319;26;20323;-60
2024/04/11 19:46:12;;;;;;;6.63;3.35;;;16.30;76.30;;;;;;10873644;26;20242;-63
2024/04/11 19:51:17;;;;;;;8.23;3.40;;;16.30;77.10;;;;;;10871413;26;20255;-61
2024/04/11 19:56:28;;;;;;;7.03;3.40;;;16.30;76.90;;;;;;10868401;26;20358;-62
2024/04/11 20:01:51;;;;;;;6.00;3.50;;;16.30;77.20;;;;;;10877865;26;22216;-62
2024/04/11 20:07:05;;;;;;;7.45;3.63;;;16.30;76.80;;;;;;10868898;26;20270;-63
2024/04/11 20:12:17;;;;;;;7.03;3.13;;;16.30;76.90;;;;;;10870198;26;20243;-62
2024/04/11 20:17:33;;;;;;;6.68;3.30;;;16.30;76.80;;;;;;10867308;26;20345;-60
2024/04/11 20:22:39;;;;;;;7.07;2.95;;;16.30;77.00;;;;;;10871990;26;20349;-59
2024/04/11 20:27:46;;;;;;;5.97;3.38;;;16.30;77.60;;;;;;10872212;26;21647;-61
2024/04/11 20:32:57;;;;;;;5.20;2.80;;;16.20;77.60;;;;;;10870466;26;20232;-61
2024/04/11 20:38:15;;;;;;;7.40;4.30;;;16.20;77.60;;;;;;10863589;26;20257;-61
2024/04/11 20:43:36;;;;;;;7.72;3.30;;;16.20;77.50;;;;;;10859335;26;22320;-66
2024/04/11 20:49:05;;;;;;;7.55;2.97;;;16.20;77.30;;;;;;10859078;26;20354;-62
2024/04/11 21:37:20;;;;;;;6.15;3.20;;;16.10;78.30;;;;;;10864538;26;20248;-65
2024/04/11 21:42:26;;;;;;;5.90;3.50;;;16.10;78.70;;;;;;10854083;26;20236;-63
2024/04/11 21:47:36;;;;;;;5.93;3.58;;;16.10;78.60;;;;;;10853095;26;20314;-62
2024/04/11 21:52:50;;;;;;;4.75;3.28;;;16.10;78.80;;;;;;10819117;26;20390;-63
2024/04/11 21:57:58;;;;;;;7.47;3.60;;;16.10;78.90;;;;;;10844072;26;20365;-62
2024/04/11 22:03:07;;;;;;;5.72;4.72;;;16.10;78.90;;;;;;10846876;26;20248;-64
2024/04/11 22:08:18;;;;;;;8.30;3.92;;;16.00;79.60;;;;;;10845988;26;20258;-63
2024/04/11 22:13:25;;;;;;;7.40;4.15;;;16.00;80.50;;;;;;10849850;26;20255;-62
2024/04/11 22:18:32;;;;;;;7.05;3.75;;;15.90;81.00;;;;;;10853916;26;20328;-64
2024/04/11 22:23:44;;;;;;;5.18;3.63;;;15.90;80.10;;;;;;10854558;26;20236;-63
2024/04/11 22:28:53;;;;;;;5.30;3.20;;;15.90;80.80;;;;;;10851907;26;20330;-64
2024/04/11 22:33:59;;;;;;;5.97;3.67;;;15.90;80.40;;;;;;10854188;26;20252;-63
2024/04/11 22:39:07;;;;;;;6.78;4.38;;;15.90;79.90;;;;;;10856229;26;20362;-63
2024/04/11 22:44:16;;;;;;;6.05;4.20;;;15.90;80.10;;;;;;10847512;26;20360;-62
2024/04/11 22:49:22;;;;;;;7.57;5.22;;;15.90;80.40;;;;;;10846848;26;20299;-63
2024/04/11 22:54:31;;;;;;;7.20;4.90;;;15.90;80.90;;;;;;10849996;26;20251;-64
2024/04/11 22:59:43;;;;;;;7.35;5.03;;;15.90;81.20;;;;;;10790958;26;20244;-63
2024/04/11 23:04:59;;;;;;;7.75;4.93;;;15.90;80.90;;;;;;10853134;26;20365;-65
2024/04/11 23:10:17;;;;;;;7.03;4.65;;;15.90;81.10;;;;;;10822228;26;20354;-64
2024/04/11 23:15:24;;;;;;;8.63;4.88;;;15.90;81.30;;;;;;10849296;26;20366;-63
2024/04/11 23:20:33;;;;;;;8.02;4.88;;;15.90;81.60;;;;;;10848179;26;21560;-63
2024/04/11 23:25:41;;;;;;;5.57;4.68;;;15.90;81.60;;;;;;10818121;26;20252;-64
2024/04/11 23:30:51;;;;;;;9.13;5.20;;;15.90;81.60;;;;;;10849128;26;20357;-64
2024/04/11 23:36:03;;;;;;;7.88;4.18;;;15.90;81.50;;;;;;10847869;26;20277;-62
2024/04/11 23:41:17;;;;;;;4.55;3.95;;;15.90;80.90;;;;;;10845141;26;21641;-63
2024/04/11 23:46:32;;;;;;;6.75;3.95;;;15.90;80.90;;;;;;10843872;26;20867;-62
2024/04/11 23:51:44;;;;;;;7.47;3.80;;;15.90;80.80;;;;;;10843406;26;21008;-64
2024/04/11 23:57:01;;;;;;;10.48;4.10;;;15.90;80.90;;;;;;10842498;26;20256;-63
